createdAt,value
2023-03-13T00:02:22.662Z,2.24
2023-03-13T00:17:24.485Z,2.55
2023-03-13T00:32:26.346Z,1.01
2023-03-13T00:47:28.174Z,1.41
2023-03-13T01:02:29.974Z,2.80
2023-03-13T01:17:31.824Z,0.95
2023-03-13T01:32:34.085Z,1.98
2023-03-13T01:47:35.905Z,1.76
2023-03-13T02:02:40.650Z,0.72
2023-03-13T02:17:43.221Z,1.12
2023-03-13T02:32:46.268Z,2.59
2023-03-13T02:47:48.094Z,2.07
2023-03-13T03:02:49.803Z,1.38
2023-03-13T03:17:51.415Z,1.66
2023-03-13T03:32:53.381Z,0.96
2023-03-13T03:47:55.264Z,1.48
2023-03-13T04:02:57.014Z,0.54
2023-03-13T04:17:58.768Z,0.74
2023-03-13T04:33:00.526Z,1.81
2023-03-13T04:48:02.259Z,1.16
2023-03-13T05:03:05.094Z,1.13
2023-03-13T05:18:06.824Z,1.05
2023-03-13T05:33:08.475Z,0.53
2023-03-13T05:48:10.230Z,0.96
2023-03-13T06:03:14.233Z,1.43
2023-03-13T06:18:16.070Z,2.14
2023-03-13T06:33:17.769Z,3.06
2023-03-13T06:48:20.324Z,3.37
2023-03-13T07:03:21.969Z,3.57
2023-03-13T07:18:23.862Z,4.05
2023-03-13T07:33:25.655Z,4.82
2023-03-13T07:48:38.909Z,5.51
2023-03-13T08:03:40.827Z,5.06
2023-03-13T08:18:45.524Z,5.79
2023-03-13T08:33:48.404Z,6.29
2023-03-13T08:48:54.746Z,6.45
2023-03-13T09:03:57.298Z,6.44
2023-03-13T09:19:00.271Z,5.86
2023-03-13T09:34:02.218Z,6.26
2023-03-13T09:49:38.353Z,7.03
2023-03-13T10:04:49.363Z,7.81
2023-03-13T10:19:58.806Z,8.14
2023-03-13T10:35:03.211Z,8.15
2023-03-13T10:50:05.437Z,8.25
2023-03-13T11:05:25.538Z,8.51
2023-03-13T11:20:39.856Z,10.13
2023-03-13T11:35:54.544Z,9.83
2023-03-13T11:51:13.385Z,10.98
2023-03-13T12:06:34.373Z,10.08
2023-03-13T12:21:42.934Z,10.85
2023-03-13T12:36:53.058Z,11.38
2023-03-13T12:52:22.569Z,11.49
2023-03-13T13:07:29.757Z,10.37
2023-03-13T13:22:40.269Z,11.42
2023-03-13T13:37:43.082Z,9.49
2023-03-13T13:52:45.212Z,10.44
2023-03-13T14:08:24.679Z,11.04
2023-03-13T14:23:47.479Z,10.90
2023-03-13T14:38:54.681Z,10.96
2023-03-13T14:54:02.406Z,10.74
2023-03-13T15:09:10.303Z,10.72
2023-03-13T15:24:15.127Z,9.66
2023-03-13T15:39:23.073Z,10.30
2023-03-13T15:54:24.794Z,10.11
2023-03-13T16:09:26.943Z,9.15
2023-03-13T16:24:28.734Z,9.46
2023-03-13T16:39:30.935Z,8.49
2023-03-13T16:54:32.666Z,8.22
2023-03-13T17:09:34.464Z,7.53
2023-03-13T17:24:36.102Z,7.15
2023-03-13T17:39:37.900Z,6.32
2023-03-13T17:54:39.710Z,7.13
2023-03-13T18:09:41.506Z,7.16
2023-03-13T18:24:44.157Z,6.43
2023-03-13T18:39:46.091Z,6.75
2023-03-13T18:54:48.097Z,6.18
2023-03-13T19:09:49.846Z,6.37
2023-03-13T19:24:51.556Z,5.25
2023-03-13T19:39:53.328Z,5.21
2023-03-13T19:54:55.947Z,6.05
2023-03-13T20:09:57.599Z,5.78
2023-03-13T20:24:59.613Z,4.86
2023-03-13T20:40:01.305Z,5.18
2023-03-13T20:55:03.072Z,5.67
2023-03-13T21:10:05.110Z,3.93
2023-03-13T21:25:09.058Z,3.27
2023-03-13T21:40:11.849Z,3.22
2023-03-13T21:55:13.613Z,3.63
2023-03-13T22:10:15.365Z,4.88
2023-03-13T22:25:17.142Z,4.10
2023-03-13T22:40:20.404Z,2.83
2023-03-13T22:55:22.116Z,3.71
2023-03-13T23:10:23.799Z,3.59
2023-03-13T23:25:25.569Z,2.82
2023-03-13T23:40:28.336Z,3.23
2023-03-13T23:55:30.045Z,3.24
